createdAt,value
2023-03-29T00:02:04.064Z,2.20
2023-03-29T00:04:31.348Z,2.30
2023-03-29T00:07:03.952Z,2.30
2023-03-29T00:09:32.975Z,2.40
2023-03-29T00:12:01.084Z,2.50
2023-03-29T00:14:30.405Z,2.50
2023-03-29T00:16:57.889Z,2.50
2023-03-29T00:19:24.649Z,2.50
2023-03-29T00:21:51.295Z,2.50
2023-03-29T00:24:17.970Z,2.50
2023-03-29T00:26:44.642Z,2.50
2023-03-29T00:29:11.376Z,2.50
2023-03-29T00:31:38.116Z,2.60
2023-03-29T00:34:04.830Z,2.60
2023-03-29T00:36:31.732Z,2.60
2023-03-29T00:38:58.464Z,2.60
2023-03-29T00:41:26.369Z,2.60
2023-03-29T00:43:56.332Z,2.70
2023-03-29T00:46:24.148Z,2.80
2023-03-29T00:48:54.529Z,2.80
2023-03-29T00:51:24.579Z,2.80
2023-03-29T00:53:57.598Z,2.80
2023-03-29T00:56:34.900Z,2.90
2023-03-29T00:59:07.137Z,3.00
2023-03-29T01:01:50.352Z,3.10
2023-03-29T01:04:29.466Z,3.30
2023-03-29T01:07:05.485Z,3.40
2023-03-29T01:09:35.469Z,3.50
2023-03-29T01:12:08.225Z,3.60
2023-03-29T01:14:42.884Z,3.60
2023-03-29T01:17:09.728Z,3.60
2023-03-29T01:19:43.668Z,3.60
2023-03-29T01:22:16.075Z,3.60
2023-03-29T01:24:59.785Z,3.60
2023-03-29T01:27:51.833Z,3.60
2023-03-29T01:30:26.725Z,3.50
2023-03-29T01:33:06.117Z,3.50
2023-03-29T01:35:43.700Z,3.40
2023-03-29T01:38:28.004Z,3.40
2023-03-29T01:40:54.907Z,3.30
2023-03-29T01:43:30.562Z,3.30
2023-03-29T01:45:57.239Z,3.20
2023-03-29T01:48:29.993Z,3.20
2023-03-29T01:51:11.405Z,3.10
2023-03-29T01:53:51.106Z,3.10
2023-03-29T01:56:22.900Z,3.10
2023-03-29T01:58:55.138Z,3.10
2023-03-29T02:01:27.596Z,3.10
2023-03-29T02:03:59.386Z,3.10
2023-03-29T02:06:29.860Z,3.10
2023-03-29T02:08:56.701Z,3.10
2023-03-29T02:11:26.049Z,3.00
2023-03-29T02:13:53.383Z,3.10
2023-03-29T02:16:20.794Z,3.10
2023-03-29T02:18:49.207Z,3.00
2023-03-29T02:21:32.554Z,3.00
2023-03-29T02:24:03.387Z,3.00
2023-03-29T02:26:30.807Z,3.00
2023-03-29T02:28:57.519Z,3.00
2023-03-29T02:31:36.460Z,2.90
2023-03-29T02:34:24.591Z,2.80
2023-03-29T02:36:56.626Z,2.80
2023-03-29T02:39:25.424Z,2.80
2023-03-29T02:41:54.112Z,2.70
2023-03-29T02:44:24.949Z,2.70
2023-03-29T02:46:55.539Z,2.70
2023-03-29T02:49:22.541Z,2.70
2023-03-29T02:51:52.652Z,2.60
2023-03-29T02:54:23.345Z,2.60
2023-03-29T02:56:56.745Z,2.60
2023-03-29T02:59:24.320Z,2.60
2023-03-29T03:01:52.582Z,2.50
2023-03-29T03:04:20.724Z,2.50
2023-03-29T03:06:48.124Z,2.50
2023-03-29T03:09:15.526Z,2.50
2023-03-29T03:11:42.342Z,2.50
2023-03-29T03:14:09.062Z,2.50
2023-03-29T03:16:37.023Z,2.50
2023-03-29T03:19:04.544Z,2.50
2023-03-29T03:21:31.337Z,2.50
2023-03-29T03:23:57.975Z,2.50
2023-03-29T03:26:30.190Z,2.50
2023-03-29T03:28:57.543Z,2.50
2023-03-29T03:31:24.465Z,2.50
2023-03-29T03:33:51.163Z,2.50
2023-03-29T03:36:17.810Z,2.50
2023-03-29T03:38:45.061Z,2.50
2023-03-29T03:41:11.792Z,2.40
2023-03-29T03:43:41.045Z,2.40
2023-03-29T03:46:08.574Z,2.40
2023-03-29T03:48:35.923Z,2.40
2023-03-29T03:51:03.683Z,2.40
2023-03-29T03:53:30.568Z,2.40
2023-03-29T03:55:57.336Z,2.40
2023-03-29T03:58:24.372Z,2.40
2023-03-29T04:00:51.429Z,2.40
2023-03-29T04:03:18.812Z,2.40
2023-03-29T04:05:47.124Z,2.30
2023-03-29T04:08:14.853Z,2.30
2023-03-29T04:10:41.676Z,2.20
2023-03-29T04:13:08.385Z,2.20
2023-03-29T04:15:41.314Z,2.20
2023-03-29T04:18:08.650Z,2.20
2023-03-29T04:20:35.840Z,2.20
2023-03-29T04:23:02.544Z,2.20
2023-03-29T04:25:29.685Z,2.10
2023-03-29T04:27:56.396Z,2.10
2023-03-29T04:30:23.469Z,2.10
2023-03-29T04:32:50.487Z,2.10
2023-03-29T04:35:17.894Z,2.10
2023-03-29T04:37:44.604Z,2.10
2023-03-29T04:40:14.977Z,2.20
2023-03-29T04:42:44.745Z,2.30
2023-03-29T04:45:13.922Z,2.30
2023-03-29T04:47:41.981Z,2.40
2023-03-29T04:50:09.189Z,2.40
2023-03-29T04:52:36.063Z,2.50
2023-03-29T04:55:04.192Z,2.60
2023-03-29T04:57:31.662Z,2.60
2023-03-29T04:59:58.501Z,2.70
2023-03-29T05:02:25.223Z,2.70
2023-03-29T05:04:52.192Z,2.70
2023-03-29T05:07:19.484Z,2.70
2023-03-29T05:09:46.351Z,2.80
2023-03-29T05:12:13.018Z,2.80
2023-03-29T05:14:39.819Z,2.80
2023-03-29T05:17:06.846Z,2.90
2023-03-29T05:19:33.665Z,3.00
2023-03-29T05:22:00.755Z,3.10
2023-03-29T05:24:27.646Z,3.10
2023-03-29T05:26:54.389Z,3.20
2023-03-29T05:29:21.700Z,3.20
2023-03-29T05:31:48.420Z,3.30
2023-03-29T05:34:15.146Z,3.30
2023-03-29T05:36:42.764Z,3.40
2023-03-29T05:39:10.862Z,3.40
2023-03-29T05:41:37.924Z,3.40
2023-03-29T05:44:04.662Z,3.50
2023-03-29T05:46:31.504Z,3.50
2023-03-29T05:48:58.436Z,3.60
2023-03-29T05:51:25.118Z,3.70
2023-03-29T05:53:52.291Z,3.70
2023-03-29T05:56:19.554Z,3.90
2023-03-29T05:58:46.669Z,4.00
2023-03-29T06:01:14.428Z,4.00
2023-03-29T06:03:42.081Z,4.20
2023-03-29T06:06:10.041Z,4.30
2023-03-29T06:08:37.562Z,4.40
2023-03-29T06:11:09.143Z,4.50
2023-03-29T06:13:37.148Z,4.60
2023-03-29T06:16:07.181Z,4.70
2023-03-29T06:18:34.565Z,4.80
2023-03-29T06:21:04.303Z,4.90
2023-03-29T06:23:32.022Z,4.90
2023-03-29T06:26:00.217Z,5.00
2023-03-29T06:28:27.208Z,5.10
2023-03-29T06:30:56.277Z,5.20
2023-03-29T06:33:25.184Z,5.20
2023-03-29T06:35:52.212Z,5.30
2023-03-29T06:38:20.752Z,5.40
2023-03-29T06:40:48.273Z,5.40
2023-03-29T06:43:14.923Z,5.50
2023-03-29T06:45:41.711Z,5.50
2023-03-29T06:48:08.704Z,5.60
2023-03-29T06:50:36.026Z,5.60
2023-03-29T06:53:04.193Z,5.70
2023-03-29T06:55:31.728Z,5.80
2023-03-29T06:58:00.308Z,5.90
2023-03-29T07:00:29.716Z,6.10
2023-03-29T07:03:01.536Z,6.20
2023-03-29T07:05:28.686Z,6.30
2023-03-29T07:08:11.277Z,6.40
2023-03-29T07:10:41.146Z,6.60
2023-03-29T07:13:10.531Z,6.70
2023-03-29T07:15:37.180Z,6.90
2023-03-29T07:18:04.978Z,7.00
2023-03-29T07:20:33.691Z,7.00
2023-03-29T07:23:00.764Z,7.10
2023-03-29T07:25:27.865Z,7.20
2023-03-29T07:27:54.569Z,7.20
2023-03-29T07:30:24.017Z,7.30
2023-03-29T07:32:52.351Z,7.40
2023-03-29T07:35:19.401Z,7.50
2023-03-29T07:37:47.481Z,7.50
2023-03-29T07:40:17.688Z,7.60
2023-03-29T07:42:45.946Z,7.60
2023-03-29T07:45:14.134Z,7.70
2023-03-29T07:47:41.543Z,7.80
2023-03-29T07:50:09.724Z,7.90
2023-03-29T07:52:38.239Z,8.00
2023-03-29T07:55:07.167Z,8.20
2023-03-29T07:57:34.570Z,8.30
2023-03-29T08:00:10.669Z,8.50
2023-03-29T08:02:37.634Z,8.60
2023-03-29T08:05:05.045Z,8.70
2023-03-29T08:07:32.177Z,8.90
2023-03-29T08:09:59.190Z,9.00
2023-03-29T08:12:26.063Z,9.00
2023-03-29T08:14:52.885Z,8.80
2023-03-29T08:17:19.544Z,8.70
2023-03-29T08:19:51.252Z,8.60
2023-03-29T08:22:19.070Z,8.60
2023-03-29T08:24:46.424Z,8.60
2023-03-29T08:27:13.065Z,8.60
2023-03-29T08:29:39.722Z,8.70
2023-03-29T08:32:06.958Z,8.90
2023-03-29T08:34:35.499Z,9.00
2023-03-29T08:37:04.265Z,9.00
2023-03-29T08:39:31.701Z,9.00
2023-03-29T08:42:23.970Z,9.10
2023-03-29T08:45:15.217Z,9.20
2023-03-29T08:48:20.728Z,9.20
2023-03-29T08:50:52.667Z,9.20
2023-03-29T08:53:27.095Z,9.30
2023-03-29T08:55:57.354Z,9.40
2023-03-29T08:58:29.050Z,9.40
2023-03-29T09:00:58.661Z,9.30
2023-03-29T09:03:39.492Z,9.30
2023-03-29T09:06:08.633Z,9.30
2023-03-29T09:08:45.098Z,9.30
2023-03-29T09:11:18.078Z,9.40
2023-03-29T09:14:08.959Z,9.70
2023-03-29T09:16:57.034Z,9.90
2023-03-29T09:19:42.429Z,10.10
2023-03-29T09:22:31.317Z,10.20
2023-03-29T09:25:24.876Z,10.50
2023-03-29T09:28:04.606Z,10.40
2023-03-29T09:30:56.164Z,10.30
2023-03-29T09:33:28.360Z,10.20
2023-03-29T09:36:17.944Z,10.20
2023-03-29T09:38:48.998Z,10.10
2023-03-29T09:41:24.560Z,10.00
2023-03-29T09:43:52.404Z,10.10
2023-03-29T09:46:41.715Z,10.30
2023-03-29T09:49:17.633Z,10.40
2023-03-29T09:51:48.162Z,10.40
2023-03-29T09:54:15.190Z,10.50
2023-03-29T09:56:42.192Z,10.70
2023-03-29T09:59:12.548Z,10.80
2023-03-29T10:01:44.229Z,11.00
2023-03-29T10:04:12.739Z,11.10
2023-03-29T10:06:51.477Z,11.00
2023-03-29T10:09:22.584Z,11.00
2023-03-29T10:11:56.683Z,10.90
2023-03-29T10:14:41.215Z,11.00
2023-03-29T10:17:26.716Z,11.10
2023-03-29T10:19:58.560Z,11.30
2023-03-29T10:22:35.156Z,11.40
2023-03-29T10:25:02.310Z,11.50
2023-03-29T10:27:32.005Z,11.80
2023-03-29T10:30:00.974Z,12.00
2023-03-29T10:32:36.884Z,12.20
2023-03-29T10:35:28.854Z,12.20
2023-03-29T10:38:00.576Z,12.20
2023-03-29T10:40:30.869Z,12.00
2023-03-29T10:43:12.338Z,12.20
2023-03-29T10:45:41.376Z,12.30
2023-03-29T10:48:16.354Z,12.10
2023-03-29T10:50:48.484Z,12.10
2023-03-29T10:53:31.784Z,12.00
2023-03-29T10:56:07.725Z,12.00
2023-03-29T10:58:53.320Z,12.00
2023-03-29T11:01:55.142Z,12.00
2023-03-29T11:04:42.096Z,12.20
2023-03-29T11:07:32.874Z,12.40
2023-03-29T11:10:53.141Z,12.60
2023-03-29T11:13:23.385Z,12.70
2023-03-29T11:16:09.584Z,12.70
2023-03-29T11:18:39.105Z,12.80
2023-03-29T11:21:35.136Z,12.70
2023-03-29T11:24:20.839Z,12.60
2023-03-29T11:27:09.292Z,12.60
2023-03-29T11:29:53.424Z,12.70
2023-03-29T11:32:39.194Z,12.70
2023-03-29T11:35:26.081Z,12.70
2023-03-29T11:38:05.390Z,12.90
2023-03-29T11:40:47.248Z,13.10
2023-03-29T11:43:27.775Z,13.20
2023-03-29T11:45:59.931Z,13.20
2023-03-29T11:48:33.687Z,13.30
2023-03-29T11:51:03.516Z,13.30
2023-03-29T11:53:39.162Z,13.00
2023-03-29T11:56:14.346Z,13.10
2023-03-29T11:58:48.248Z,13.20
2023-03-29T12:01:25.529Z,13.40
2023-03-29T12:04:03.549Z,13.60
2023-03-29T12:06:39.245Z,13.90
2023-03-29T12:09:22.496Z,13.90
2023-03-29T12:12:08.232Z,13.90
2023-03-29T12:15:05.587Z,13.80
2023-03-29T12:17:41.939Z,13.70
2023-03-29T12:20:29.452Z,13.40
2023-03-29T12:22:56.201Z,13.40
2023-03-29T12:25:53.711Z,13.50
2023-03-29T12:28:58.819Z,13.60
2023-03-29T12:31:25.594Z,13.70
2023-03-29T12:34:11.751Z,13.90
2023-03-29T12:37:18.930Z,14.00
2023-03-29T12:39:45.693Z,14.10
2023-03-29T12:42:21.281Z,14.20
2023-03-29T12:44:58.793Z,14.10
2023-03-29T12:47:32.402Z,13.80
2023-03-29T12:50:01.326Z,13.90
2023-03-29T12:52:33.321Z,13.90
2023-03-29T12:55:17.331Z,13.90
2023-03-29T12:58:02.752Z,14.00
2023-03-29T13:00:34.477Z,13.80
2023-03-29T13:03:19.930Z,13.60
2023-03-29T13:05:47.210Z,13.60
2023-03-29T13:08:28.369Z,13.40
2023-03-29T13:10:56.656Z,13.50
2023-03-29T13:13:31.091Z,13.60
2023-03-29T13:16:16.629Z,13.70
2023-03-29T13:19:06.720Z,13.70
2023-03-29T13:21:59.441Z,13.90
2023-03-29T13:24:32.339Z,13.90
2023-03-29T13:27:21.644Z,13.90
2023-03-29T13:29:55.768Z,13.80
2023-03-29T13:32:58.278Z,14.00
2023-03-29T13:35:34.099Z,14.10
2023-03-29T13:38:31.324Z,14.20
2023-03-29T13:41:01.424Z,14.20
2023-03-29T13:43:49.818Z,14.50
2023-03-29T13:46:22.425Z,14.80
2023-03-29T13:49:19.739Z,15.30
2023-03-29T13:52:18.838Z,15.70
2023-03-29T13:54:58.127Z,15.50
2023-03-29T13:57:53.422Z,15.30
2023-03-29T14:01:07.458Z,15.00
2023-03-29T14:03:44.982Z,14.80
2023-03-29T14:06:16.882Z,14.80
2023-03-29T14:08:44.466Z,14.70
2023-03-29T14:11:24.381Z,14.70
2023-03-29T14:13:57.077Z,14.60
2023-03-29T14:16:27.967Z,14.60
2023-03-29T14:19:13.724Z,14.70
2023-03-29T14:21:42.318Z,14.70
2023-03-29T14:24:18.616Z,14.70
2023-03-29T14:26:47.763Z,14.70
2023-03-29T14:29:14.933Z,14.60
2023-03-29T14:31:42.805Z,14.50
2023-03-29T14:34:18.476Z,14.40
2023-03-29T14:36:48.963Z,14.30
2023-03-29T14:39:19.302Z,14.40
2023-03-29T14:41:54.094Z,14.40
2023-03-29T14:44:23.708Z,14.40
2023-03-29T14:46:50.485Z,14.30
2023-03-29T14:49:19.449Z,14.30
2023-03-29T14:51:47.778Z,14.20
2023-03-29T14:54:22.079Z,14.10
2023-03-29T14:56:50.171Z,14.10
2023-03-29T14:59:38.645Z,14.00
2023-03-29T15:02:25.029Z,13.90
2023-03-29T15:05:04.780Z,13.80
2023-03-29T15:07:34.076Z,13.70
2023-03-29T15:10:02.960Z,13.70
2023-03-29T15:12:31.378Z,13.60
2023-03-29T15:14:59.390Z,13.60
2023-03-29T15:17:46.935Z,13.60
2023-03-29T15:20:23.283Z,13.60
2023-03-29T15:23:12.809Z,13.60
2023-03-29T15:25:51.838Z,13.50
2023-03-29T15:28:32.729Z,13.60
2023-03-29T15:31:14.809Z,13.60
2023-03-29T15:33:42.196Z,13.40
2023-03-29T15:36:11.341Z,13.30
2023-03-29T15:38:44.715Z,13.30
2023-03-29T15:41:15.407Z,13.20
2023-03-29T15:43:42.865Z,13.00
2023-03-29T15:46:12.768Z,12.90
2023-03-29T15:48:40.476Z,12.80
2023-03-29T15:51:07.507Z,12.70
2023-03-29T15:53:35.409Z,12.60
2023-03-29T15:56:05.276Z,12.50
2023-03-29T15:58:33.646Z,12.40
2023-03-29T16:01:23.811Z,12.40
2023-03-29T16:03:51.020Z,12.30
2023-03-29T16:06:18.405Z,12.30
2023-03-29T16:08:46.040Z,12.30
2023-03-29T16:11:12.887Z,12.20
2023-03-29T16:13:39.788Z,12.20
2023-03-29T16:16:07.625Z,12.20
2023-03-29T16:18:35.330Z,12.20
2023-03-29T16:21:02.214Z,12.20
2023-03-29T16:23:29.006Z,12.10
2023-03-29T16:25:56.040Z,12.10
2023-03-29T16:28:22.679Z,12.00
2023-03-29T16:30:49.320Z,11.90
2023-03-29T16:33:16.318Z,11.90
2023-03-29T16:35:43.259Z,11.80
2023-03-29T16:38:10.008Z,11.80
2023-03-29T16:40:37.018Z,11.80
2023-03-29T16:43:04.556Z,11.70
2023-03-29T16:45:31.632Z,11.70
2023-03-29T16:47:58.603Z,11.70
2023-03-29T16:50:25.416Z,11.70
2023-03-29T16:52:52.651Z,11.70
2023-03-29T16:55:19.659Z,11.70
2023-03-29T16:57:47.678Z,11.60
2023-03-29T17:00:17.050Z,11.60
2023-03-29T17:02:44.389Z,11.50
2023-03-29T17:05:12.347Z,11.50
2023-03-29T17:07:39.346Z,11.50
2023-03-29T17:10:08.212Z,11.40
2023-03-29T17:12:36.036Z,11.20
2023-03-29T17:15:04.114Z,11.00
2023-03-29T17:17:31.079Z,11.00
2023-03-29T17:19:57.875Z,10.90
2023-03-29T17:22:25.607Z,10.90
2023-03-29T17:24:52.443Z,10.80
2023-03-29T17:27:19.178Z,10.80
2023-03-29T17:29:45.838Z,10.70
2023-03-29T17:32:12.601Z,10.70
2023-03-29T17:34:39.360Z,10.60
2023-03-29T17:37:06.061Z,10.60
2023-03-29T17:39:37.116Z,10.60
2023-03-29T17:42:05.300Z,10.50
2023-03-29T17:44:33.522Z,10.50
2023-03-29T17:47:01.021Z,10.50
2023-03-29T17:49:28.151Z,10.50
2023-03-29T17:51:55.198Z,10.40
2023-03-29T17:54:22.160Z,10.40
2023-03-29T17:56:49.325Z,10.30
2023-03-29T17:59:16.735Z,10.30
2023-03-29T18:01:43.503Z,10.30
2023-03-29T18:04:10.462Z,10.20
2023-03-29T18:06:37.272Z,10.20
2023-03-29T18:09:04.529Z,10.10
2023-03-29T18:11:31.736Z,10.00
2023-03-29T18:14:00.332Z,10.00
2023-03-29T18:16:27.305Z,10.00
2023-03-29T18:18:54.081Z,10.00
2023-03-29T18:21:21.052Z,9.90
2023-03-29T18:23:49.208Z,9.90
2023-03-29T18:26:16.461Z,9.90
2023-03-29T18:28:47.005Z,9.90
2023-03-29T18:31:16.485Z,9.90
2023-03-29T18:33:43.457Z,9.90
2023-03-29T18:36:13.293Z,9.90
2023-03-29T18:38:43.210Z,9.90
2023-03-29T18:41:12.377Z,9.90
2023-03-29T18:43:39.897Z,9.90
2023-03-29T18:46:08.267Z,9.80
2023-03-29T18:48:38.726Z,9.80
2023-03-29T18:51:07.710Z,9.70
2023-03-29T18:53:35.846Z,9.70
2023-03-29T18:56:04.255Z,9.70
2023-03-29T18:58:31.291Z,9.70
2023-03-29T19:01:05.516Z,9.70
2023-03-29T19:03:34.530Z,9.70
2023-03-29T19:06:02.280Z,9.70
2023-03-29T19:08:29.252Z,9.70
2023-03-29T19:11:05.655Z,9.60
2023-03-29T19:13:32.375Z,9.60
2023-03-29T19:15:59.123Z,9.60
2023-03-29T19:18:26.397Z,9.60
2023-03-29T19:20:56.142Z,9.60
2023-03-29T19:23:25.855Z,9.50
2023-03-29T19:25:53.627Z,9.50
2023-03-29T19:28:20.604Z,9.50
2023-03-29T19:30:47.366Z,9.50
2023-03-29T19:33:17.377Z,9.50
2023-03-29T19:35:44.312Z,9.50
2023-03-29T19:38:11.647Z,9.40
2023-03-29T19:40:38.649Z,9.40
2023-03-29T19:43:05.711Z,9.40
2023-03-29T19:45:32.412Z,9.30
2023-03-29T19:48:02.904Z,9.30
2023-03-29T19:50:31.671Z,9.30
2023-03-29T19:52:58.469Z,9.30
2023-03-29T19:55:26.742Z,9.20
2023-03-29T19:57:53.393Z,9.20
2023-03-29T20:00:24.408Z,9.20
2023-03-29T20:02:56.492Z,9.20
2023-03-29T20:05:24.161Z,9.20
2023-03-29T20:07:51.264Z,9.10
2023-03-29T20:10:18.108Z,9.10
2023-03-29T20:12:44.883Z,9.00
2023-03-29T20:15:11.676Z,9.00
2023-03-29T20:17:40.773Z,9.00
2023-03-29T20:20:09.805Z,9.00
2023-03-29T20:22:42.085Z,9.00
2023-03-29T20:25:09.428Z,9.00
2023-03-29T20:27:36.330Z,9.00
2023-03-29T20:30:03.802Z,9.00
2023-03-29T20:32:30.900Z,9.10
2023-03-29T20:34:57.646Z,9.10
2023-03-29T20:37:25.910Z,9.20
2023-03-29T20:39:52.856Z,9.20
2023-03-29T20:42:24.470Z,9.30
2023-03-29T20:44:53.785Z,9.30
2023-03-29T20:47:20.638Z,9.30
2023-03-29T20:49:47.379Z,9.30
2023-03-29T20:52:16.474Z,9.30
2023-03-29T20:54:44.821Z,9.30
2023-03-29T20:57:16.428Z,9.30
2023-03-29T20:59:44.141Z,9.30
2023-03-29T21:02:22.091Z,9.30
2023-03-29T21:04:50.576Z,9.30
2023-03-29T21:07:17.831Z,9.30
2023-03-29T21:09:44.580Z,9.30
2023-03-29T21:12:11.301Z,9.30
2023-03-29T21:14:37.959Z,9.30
2023-03-29T21:17:04.589Z,9.30
2023-03-29T21:19:31.349Z,9.30
2023-03-29T21:21:58.050Z,9.30
2023-03-29T21:24:24.749Z,9.30
2023-03-29T21:26:51.390Z,9.30
2023-03-29T21:29:18.055Z,9.30
2023-03-29T21:31:44.770Z,9.30
2023-03-29T21:34:11.480Z,9.30
2023-03-29T21:36:39.746Z,9.40
2023-03-29T21:39:06.767Z,9.40
2023-03-29T21:41:33.543Z,9.40
2023-03-29T21:44:00.281Z,9.50
2023-03-29T21:46:27.189Z,9.50
2023-03-29T21:48:53.916Z,9.50
2023-03-29T21:51:20.649Z,9.50
2023-03-29T21:53:47.329Z,9.60
2023-03-29T21:56:14.046Z,9.60
2023-03-29T21:58:41.479Z,9.60
2023-03-29T22:01:10.090Z,9.60
2023-03-29T22:03:37.809Z,9.60
2023-03-29T22:06:08.554Z,9.60
2023-03-29T22:08:38.754Z,9.60
2023-03-29T22:11:11.493Z,9.60
2023-03-29T22:13:38.854Z,9.60
2023-03-29T22:16:06.647Z,9.60
2023-03-29T22:18:43.317Z,9.60
2023-03-29T22:21:15.624Z,9.60
2023-03-29T22:23:43.695Z,9.60
2023-03-29T22:26:12.701Z,9.60
2023-03-29T22:28:40.506Z,9.60
2023-03-29T22:31:10.470Z,9.60
2023-03-29T22:33:37.929Z,9.60
2023-03-29T22:36:15.666Z,9.60
2023-03-29T22:38:42.856Z,9.60
2023-03-29T22:41:09.796Z,9.70
2023-03-29T22:43:37.106Z,9.70
2023-03-29T22:46:05.656Z,9.80
2023-03-29T22:48:32.663Z,9.80
2023-03-29T22:50:59.516Z,9.90
2023-03-29T22:53:27.133Z,9.90
2023-03-29T22:55:54.934Z,10.00
2023-03-29T22:58:21.730Z,10.00
2023-03-29T23:00:49.248Z,10.00
2023-03-29T23:03:16.611Z,10.00
2023-03-29T23:05:53.415Z,10.00
2023-03-29T23:08:20.793Z,10.00
2023-03-29T23:10:47.569Z,10.00
2023-03-29T23:13:19.856Z,10.00
2023-03-29T23:15:48.529Z,10.00
2023-03-29T23:18:18.106Z,10.00
2023-03-29T23:20:47.182Z,9.90
2023-03-29T23:23:15.291Z,9.90
2023-03-29T23:25:46.516Z,9.90
2023-03-29T23:28:14.512Z,9.90
2023-03-29T23:30:41.569Z,9.90
2023-03-29T23:33:10.380Z,9.90
2023-03-29T23:35:37.739Z,9.90
2023-03-29T23:38:05.752Z,9.90
2023-03-29T23:40:33.144Z,9.90
2023-03-29T23:43:00.414Z,9.90
2023-03-29T23:45:29.928Z,9.90
2023-03-29T23:47:57.056Z,9.90
2023-03-29T23:50:23.990Z,9.90
2023-03-29T23:52:51.517Z,9.80
2023-03-29T23:55:19.395Z,9.70
2023-03-29T23:57:46.430Z,9.60
